createdAt,value
2018-03-02T00:00:22.581Z,-6.80
2018-03-02T00:02:50.219Z,-6.90
2018-03-02T00:05:18.013Z,-6.80
2018-03-02T00:07:45.537Z,-7.00
2018-03-02T00:10:13.085Z,-6.90
2018-03-02T00:12:40.768Z,-6.80
2018-03-02T00:15:08.447Z,-6.80
2018-03-02T00:17:36.205Z,-6.80
2018-03-02T00:20:03.980Z,-7.20
2018-03-02T00:22:32.324Z,-7.10
2018-03-02T00:24:59.850Z,-7.30
2018-03-02T00:27:27.472Z,-7.10
2018-03-02T00:29:55.006Z,-7.30
2018-03-02T00:32:22.584Z,-7.30
2018-03-02T00:34:50.227Z,-7.40
2018-03-02T00:37:17.768Z,-7.20
2018-03-02T00:39:45.288Z,-7.20
2018-03-02T00:42:12.797Z,-7.30
2018-03-02T00:44:40.389Z,-7.40
2018-03-02T00:47:08.019Z,-7.50
2018-03-02T00:49:35.577Z,-7.40
2018-03-02T00:52:03.087Z,-7.70
2018-03-02T00:54:30.622Z,-7.70
2018-03-02T00:56:58.152Z,-7.50
2018-03-02T00:59:26.647Z,-7.40
2018-03-02T01:01:54.411Z,-7.30
2018-03-02T01:04:22.188Z,-7.30
2018-03-02T01:06:50.383Z,-7.40
2018-03-02T01:09:18.683Z,-7.50
2018-03-02T01:11:46.190Z,-7.50
2018-03-02T01:14:13.696Z,-7.40
2018-03-02T01:16:41.293Z,-7.40
2018-03-02T01:19:08.798Z,-7.50
2018-03-02T01:21:37.100Z,-7.70
2018-03-02T01:24:04.608Z,-7.70
2018-03-02T01:26:32.383Z,-7.90
2018-03-02T01:28:59.875Z,-7.80
2018-03-02T01:31:27.398Z,-7.80
2018-03-02T01:33:55.011Z,-7.80
2018-03-02T01:36:22.807Z,-8.10
2018-03-02T01:38:50.311Z,-8.20
2018-03-02T01:41:17.830Z,-8.40
2018-03-02T01:43:45.439Z,-8.20
2018-03-02T01:46:14.374Z,-8.10
2018-03-02T01:48:41.897Z,-8.20
2018-03-02T01:51:09.423Z,-8.40
2018-03-02T01:53:36.939Z,-8.30
2018-03-02T01:56:04.460Z,-8.30
2018-03-02T01:58:31.979Z,-8.20
2018-03-02T02:00:59.503Z,-8.60
2018-03-02T02:03:27.014Z,-8.40
2018-03-02T02:05:54.735Z,-8.40
2018-03-02T02:08:22.243Z,-8.50
2018-03-02T02:10:49.763Z,-8.60
2018-03-02T02:13:17.283Z,-8.50
2018-03-02T02:15:44.872Z,-8.50
2018-03-02T02:18:12.412Z,-8.40
2018-03-02T02:20:40.092Z,-8.40
2018-03-02T02:23:08.234Z,-8.40
2018-03-02T02:25:35.812Z,-8.70
2018-03-02T02:28:03.324Z,-9.00
2018-03-02T02:30:30.833Z,-9.00
2018-03-02T02:32:58.354Z,-8.90
2018-03-02T02:35:26.081Z,-8.80
2018-03-02T02:37:53.595Z,-8.90
2018-03-02T02:40:21.277Z,-8.80
2018-03-02T02:42:48.760Z,-8.80
2018-03-02T02:45:17.041Z,-8.80
2018-03-02T02:47:45.527Z,-8.90
2018-03-02T02:50:13.250Z,-9.20
2018-03-02T02:52:40.772Z,-8.90
2018-03-02T02:55:08.468Z,-9.10
2018-03-02T02:57:35.988Z,-9.00
2018-03-02T03:00:03.505Z,-9.10
2018-03-02T03:02:31.143Z,-9.10
2018-03-02T03:04:58.644Z,-9.10
2018-03-02T03:07:27.007Z,-9.00
2018-03-02T03:09:54.753Z,-9.30
2018-03-02T03:12:22.280Z,-9.30
2018-03-02T03:14:49.970Z,-9.20
2018-03-02T03:17:17.753Z,-9.20
2018-03-02T03:19:45.721Z,-9.30
2018-03-02T03:22:14.012Z,-9.20
2018-03-02T03:24:42.284Z,-9.00
2018-03-02T03:27:09.808Z,-9.10
2018-03-02T03:29:37.318Z,-9.00
2018-03-02T03:32:04.904Z,-8.90
2018-03-02T03:34:32.406Z,-9.20
2018-03-02T03:36:59.921Z,-9.20
2018-03-02T03:39:27.433Z,-9.20
2018-03-02T03:41:55.722Z,-9.50
2018-03-02T03:44:23.420Z,-9.50
2018-03-02T03:46:50.924Z,-9.40
2018-03-02T03:49:18.435Z,-9.30
2018-03-02T03:51:45.946Z,-9.60
2018-03-02T03:54:13.563Z,-9.60
2018-03-02T03:56:41.071Z,-9.40
2018-03-02T03:59:08.581Z,-9.40
2018-03-02T04:01:36.249Z,-9.70
2018-03-02T04:04:04.727Z,-9.60
2018-03-02T04:06:32.387Z,-9.50
2018-03-02T04:09:00.015Z,-9.50
2018-03-02T04:11:27.607Z,-9.60
2018-03-02T04:13:55.119Z,-9.60
2018-03-02T04:16:22.623Z,-9.60
2018-03-02T04:18:50.141Z,-9.60
2018-03-02T04:21:17.746Z,-9.70
2018-03-02T04:23:45.272Z,-9.80
2018-03-02T04:26:12.898Z,-10.10
2018-03-02T04:28:40.439Z,-10.00
2018-03-02T04:31:08.184Z,-10.20
2018-03-02T04:33:35.695Z,-10.20
2018-03-02T04:36:03.981Z,-10.20
2018-03-02T04:38:31.500Z,-10.00
2018-03-02T04:40:59.231Z,-10.10
2018-03-02T04:43:26.751Z,-10.00
2018-03-02T04:45:54.255Z,-10.20
2018-03-02T04:48:21.907Z,-10.00
2018-03-02T04:50:49.413Z,-9.90
2018-03-02T04:53:16.916Z,-9.70
2018-03-02T04:55:44.587Z,-9.70
2018-03-02T04:58:12.346Z,-9.60
2018-03-02T05:00:39.860Z,-9.50
2018-03-02T05:03:07.367Z,-9.80
2018-03-02T05:05:34.994Z,-9.90
2018-03-02T05:08:02.643Z,-10.00
2018-03-02T05:10:30.347Z,-10.00
2018-03-02T05:12:58.011Z,-10.10
2018-03-02T05:15:25.747Z,-10.10
2018-03-02T05:17:53.255Z,-10.10
2018-03-02T05:20:20.778Z,-10.00
2018-03-02T05:22:48.406Z,-10.00
2018-03-02T05:25:16.212Z,-10.10
2018-03-02T05:27:43.736Z,-10.30
2018-03-02T05:30:11.322Z,-10.30
2018-03-02T05:32:38.895Z,-10.20
2018-03-02T05:35:06.418Z,-10.40
2018-03-02T05:37:33.936Z,-10.50
2018-03-02T05:40:02.423Z,-10.60
2018-03-02T05:42:30.450Z,-10.60
2018-03-02T05:44:57.972Z,-10.70
2018-03-02T05:47:25.491Z,-10.70
2018-03-02T05:49:53.248Z,-10.60
2018-03-02T05:52:20.779Z,-10.70
2018-03-02T05:54:48.559Z,-10.70
2018-03-02T05:57:16.191Z,-10.70
2018-03-02T05:59:43.710Z,-10.50
2018-03-02T06:02:11.559Z,-10.40
2018-03-02T06:04:39.303Z,-10.30
2018-03-02T06:07:06.979Z,-10.30
2018-03-02T06:09:34.502Z,-10.20
2018-03-02T06:12:02.025Z,-10.10
2018-03-02T06:14:30.577Z,-10.30
2018-03-02T06:16:58.099Z,-10.30
2018-03-02T06:19:25.783Z,-10.10
2018-03-02T06:21:54.557Z,-10.10
2018-03-02T06:24:22.060Z,-6.50
2018-03-02T06:26:50.608Z,-5.20
2018-03-02T06:29:18.122Z,-5.20
2018-03-02T06:31:45.649Z,-4.60
2018-03-02T06:34:13.168Z,-4.40
2018-03-02T06:36:40.678Z,-4.90
2018-03-02T06:39:08.196Z,-6.70
2018-03-02T06:41:35.731Z,-8.30
2018-03-02T06:44:03.384Z,-9.30
2018-03-02T06:46:30.899Z,-9.50
2018-03-02T06:48:58.427Z,-10.00
2018-03-02T06:51:25.942Z,-10.20
2018-03-02T06:53:54.733Z,-9.90
2018-03-02T06:56:22.248Z,-9.90
2018-03-02T06:58:49.766Z,-10.00
2018-03-02T07:01:17.460Z,-9.80
2018-03-02T07:03:44.959Z,-9.90
2018-03-02T07:06:12.583Z,-10.00
2018-03-02T07:08:40.132Z,-10.00
2018-03-02T07:11:07.641Z,-9.90
2018-03-02T07:13:35.316Z,-9.90
2018-03-02T07:16:02.848Z,-9.90
2018-03-02T07:18:30.355Z,-9.70
2018-03-02T07:20:58.128Z,-9.80
2018-03-02T07:23:25.635Z,-9.90
2018-03-02T07:25:53.247Z,-9.70
2018-03-02T07:28:21.855Z,-9.70
2018-03-02T07:30:49.365Z,-9.40
2018-03-02T07:33:16.879Z,-9.20
2018-03-02T07:35:44.610Z,-9.30
2018-03-02T07:38:12.128Z,-9.10
2018-03-02T07:40:39.962Z,-9.00
2018-03-02T07:43:07.468Z,-8.90
2018-03-02T07:45:35.147Z,-8.80
2018-03-02T07:48:02.667Z,-8.90
2018-03-02T07:50:31.091Z,-8.80
2018-03-02T07:52:58.620Z,-8.80
2018-03-02T07:55:26.426Z,-8.80
2018-03-02T07:57:53.943Z,-9.00
2018-03-02T08:00:21.660Z,-8.80
2018-03-02T08:02:49.176Z,-8.80
2018-03-02T08:05:17.112Z,-8.80
2018-03-02T08:07:44.626Z,-8.70
2018-03-02T08:10:12.380Z,-8.60
2018-03-02T08:12:39.888Z,-8.50
2018-03-02T08:15:07.596Z,-8.40
2018-03-02T08:17:35.122Z,-8.70
2018-03-02T08:20:03.410Z,-8.70
2018-03-02T08:22:31.195Z,-8.50
2018-03-02T08:24:58.703Z,-8.50
2018-03-02T08:27:26.419Z,-8.10
2018-03-02T08:29:54.175Z,-7.90
2018-03-02T08:32:22.187Z,-7.80
2018-03-02T08:34:50.032Z,-7.70
2018-03-02T08:37:19.306Z,-7.70
2018-03-02T08:39:46.830Z,-7.70
2018-03-02T08:42:14.527Z,-7.70
2018-03-02T08:44:42.296Z,-7.60
2018-03-02T08:47:09.826Z,-7.40
2018-03-02T08:49:37.515Z,-7.30
2018-03-02T08:52:05.024Z,-7.30
2018-03-02T08:54:32.699Z,-7.10
2018-03-02T08:57:00.211Z,-7.00
2018-03-02T08:59:27.731Z,-6.80
2018-03-02T09:01:55.466Z,-6.90
2018-03-02T09:04:22.936Z,-6.80
2018-03-02T09:06:50.456Z,-6.60
2018-03-02T09:09:18.092Z,-6.60
2018-03-02T09:11:45.669Z,-6.70
2018-03-02T09:14:13.147Z,-6.60
2018-03-02T09:16:40.663Z,-7.00
2018-03-02T09:19:08.203Z,-7.10
2018-03-02T09:21:35.714Z,-6.80
2018-03-02T09:24:03.234Z,-6.60
2018-03-02T09:26:30.872Z,-6.50
2018-03-02T09:28:58.624Z,-6.30
2018-03-02T09:31:26.127Z,-6.10
2018-03-02T09:33:53.878Z,-6.60
2018-03-02T09:36:21.401Z,-6.60
2018-03-02T09:38:49.100Z,-6.60
2018-03-02T09:41:16.863Z,-6.50
2018-03-02T09:43:45.284Z,-6.40
2018-03-02T09:46:13.007Z,-6.30
2018-03-02T09:48:41.335Z,-6.10
2018-03-02T09:51:08.857Z,-6.00
2018-03-02T09:53:36.374Z,-6.00
2018-03-02T09:56:04.015Z,-5.70
2018-03-02T09:58:31.824Z,-5.50
2018-03-02T10:00:59.340Z,-5.60
2018-03-02T10:03:27.048Z,-5.50
2018-03-02T10:05:54.806Z,-5.40
2018-03-02T10:08:22.315Z,-5.20
2018-03-02T10:10:50.384Z,-5.30
2018-03-02T10:13:18.103Z,-5.30
2018-03-02T10:15:45.642Z,-5.20
2018-03-02T10:18:13.268Z,-5.30
2018-03-02T10:20:40.775Z,-5.30
2018-03-02T10:23:08.284Z,-5.20
2018-03-02T10:25:35.991Z,-5.20
2018-03-02T10:28:03.527Z,-5.10
2018-03-02T10:30:31.212Z,-5.10
2018-03-02T10:32:58.720Z,-5.20
2018-03-02T10:35:26.244Z,-5.20
2018-03-02T10:37:53.747Z,-5.10
2018-03-02T10:40:21.259Z,-4.90
2018-03-02T10:42:49.716Z,-4.90
2018-03-02T10:45:17.220Z,-4.90
2018-03-02T10:47:45.064Z,-4.90
2018-03-02T10:50:12.707Z,-4.70
2018-03-02T10:52:40.228Z,-4.50
2018-03-02T10:55:07.899Z,-4.40
2018-03-02T10:57:35.687Z,-4.30
2018-03-02T11:00:03.479Z,-4.30
2018-03-02T11:02:30.985Z,-4.30
2018-03-02T11:05:04.288Z,-4.30
2018-03-02T11:07:31.800Z,-4.20
2018-03-02T11:10:00.072Z,-4.10
2018-03-02T11:12:27.859Z,-4.10
2018-03-02T11:14:55.538Z,-4.00
2018-03-02T11:17:23.048Z,-4.30
2018-03-02T11:19:50.762Z,-4.40
2018-03-02T11:22:18.279Z,-4.30
2018-03-02T11:24:46.008Z,-4.40
2018-03-02T11:27:13.523Z,-4.20
2018-03-02T11:29:43.071Z,-4.20
2018-03-02T11:32:10.831Z,-4.50
2018-03-02T11:34:38.343Z,-4.50
2018-03-02T11:37:05.861Z,-4.20
2018-03-02T11:39:33.475Z,-4.10
2018-03-02T11:42:01.279Z,-4.10
2018-03-02T11:44:29.040Z,-4.20
2018-03-02T11:46:56.578Z,-4.10
2018-03-02T11:49:24.056Z,-3.90
2018-03-02T11:51:51.564Z,-3.90
2018-03-02T11:54:19.084Z,-3.90
2018-03-02T11:56:47.556Z,-4.10
2018-03-02T11:59:15.091Z,-4.20
2018-03-02T12:01:42.599Z,-4.10
2018-03-02T12:04:11.095Z,-3.90
2018-03-02T12:06:38.610Z,-4.00
2018-03-02T12:09:06.375Z,-3.90
2018-03-02T12:11:34.132Z,-4.10
2018-03-02T12:14:01.660Z,-3.90
2018-03-02T12:16:29.173Z,-3.80
2018-03-02T12:18:56.793Z,-3.80
2018-03-02T12:21:24.308Z,-3.70
2018-03-02T12:23:51.864Z,-3.60
2018-03-02T12:26:19.473Z,-3.50
2018-03-02T12:28:47.212Z,-3.40
2018-03-02T12:31:14.716Z,-3.40
2018-03-02T12:33:42.497Z,-3.60
2018-03-02T12:36:09.959Z,-3.50
2018-03-02T12:38:37.475Z,-3.40
2018-03-02T12:41:05.032Z,-3.60
2018-03-02T12:43:32.924Z,-3.90
2018-03-02T12:46:01.645Z,-4.00
2018-03-02T12:48:29.163Z,-4.10
2018-03-02T12:50:56.827Z,-4.20
2018-03-02T12:53:24.328Z,-3.90
2018-03-02T12:55:51.991Z,-3.90
2018-03-02T12:58:19.496Z,-4.00
2018-03-02T13:00:47.011Z,-4.20
2018-03-02T13:03:14.527Z,-4.10
2018-03-02T13:05:42.089Z,-4.00
2018-03-02T13:08:09.618Z,-3.90
2018-03-02T13:10:37.244Z,-4.10
2018-03-02T13:13:04.811Z,-4.00
2018-03-02T13:15:32.324Z,-3.90
2018-03-02T13:18:00.073Z,-3.90
2018-03-02T13:20:27.635Z,-3.70
2018-03-02T13:22:55.243Z,-4.00
2018-03-02T13:25:22.764Z,-4.20
2018-03-02T13:28:02.284Z,-4.10
2018-03-02T13:30:29.915Z,-3.90
2018-03-02T13:33:09.320Z,-3.80
2018-03-02T13:35:36.843Z,-3.80
2018-03-02T13:38:04.423Z,-4.10
2018-03-02T13:40:44.401Z,-4.10
2018-03-02T13:43:12.055Z,-4.20
2018-03-02T13:45:39.558Z,-4.00
2018-03-02T13:51:15.680Z,-3.80
2018-03-02T13:53:43.188Z,-4.00
2018-03-02T13:56:22.659Z,-4.10
2018-03-02T13:58:50.160Z,-4.30
2018-03-02T14:01:17.752Z,-4.30
2018-03-02T14:03:57.064Z,-4.50
2018-03-02T14:06:24.619Z,-4.50
2018-03-02T14:08:52.127Z,-4.60
2018-03-02T14:11:19.639Z,-4.40
2018-03-02T14:13:47.636Z,-4.40
2018-03-02T14:16:15.144Z,-4.50
2018-03-02T14:18:42.651Z,-4.60
2018-03-02T14:21:10.160Z,-4.30
2018-03-02T14:23:37.672Z,-4.30
2018-03-02T14:26:06.730Z,-4.40
2018-03-02T14:28:34.516Z,-4.50
2018-03-02T14:31:02.244Z,-4.40
2018-03-02T14:33:29.755Z,-4.20
2018-03-02T14:35:57.524Z,-4.00
2018-03-02T14:38:25.096Z,-4.10
2018-03-02T14:40:54.373Z,-4.70
2018-03-02T14:43:21.893Z,-4.70
2018-03-02T14:45:49.391Z,-4.70
2018-03-02T14:48:16.909Z,-4.90
2018-03-02T14:50:44.476Z,-4.80
2018-03-02T14:53:12.170Z,-4.80
2018-03-02T14:55:39.686Z,-4.80
2018-03-02T14:58:07.199Z,-4.80
2018-03-02T15:00:34.701Z,-4.80
2018-03-02T15:03:02.224Z,-4.80
2018-03-02T15:05:29.759Z,-4.80
2018-03-02T15:07:57.499Z,-4.80
2018-03-02T15:10:25.009Z,-4.90
2018-03-02T15:12:52.700Z,-4.80
2018-03-02T15:15:20.203Z,-4.80
2018-03-02T15:17:47.778Z,-4.70
2018-03-02T15:20:15.362Z,-4.50
2018-03-02T15:22:42.883Z,-4.70
2018-03-02T15:25:11.453Z,-4.90
2018-03-02T15:27:39.488Z,-4.90
2018-03-02T15:30:07.379Z,-5.00
2018-03-02T15:32:34.918Z,-5.40
2018-03-02T15:35:02.439Z,-5.50
2018-03-02T15:37:30.975Z,-5.30
2018-03-02T15:39:58.743Z,-5.30
2018-03-02T15:42:26.295Z,-5.30
2018-03-02T15:44:53.859Z,-5.30
2018-03-02T15:47:21.387Z,-5.50
2018-03-02T15:49:49.194Z,-5.40
2018-03-02T15:52:16.956Z,-5.30
2018-03-02T15:54:44.704Z,-5.40
2018-03-02T15:57:12.287Z,-5.50
2018-03-02T15:59:39.892Z,-5.60
2018-03-02T16:02:07.401Z,-5.60
2018-03-02T16:04:34.923Z,-5.50
2018-03-02T16:07:02.442Z,-5.40
2018-03-02T16:09:30.724Z,-5.40
2018-03-02T16:11:58.458Z,-5.40
2018-03-02T16:14:26.007Z,-5.50
2018-03-02T16:16:53.639Z,-5.40
2018-03-02T16:19:21.456Z,-5.50
2018-03-02T16:21:49.205Z,-5.40
2018-03-02T16:24:16.976Z,-5.40
2018-03-02T16:26:44.741Z,-5.40
2018-03-02T16:29:12.367Z,-5.30
2018-03-02T16:31:39.909Z,-5.50
2018-03-02T16:34:07.420Z,-5.80
2018-03-02T16:36:35.132Z,-5.80
2018-03-02T16:39:02.726Z,-5.70
2018-03-02T16:41:30.396Z,-5.60
2018-03-02T16:43:58.143Z,-5.50
2018-03-02T16:46:25.658Z,-5.50
2018-03-02T16:48:53.176Z,-5.50
2018-03-02T16:51:20.719Z,-5.80
2018-03-02T16:53:48.866Z,-5.90
2018-03-02T16:56:16.376Z,-6.00
2018-03-02T16:58:43.912Z,-6.00
2018-03-02T17:01:11.477Z,-6.20
2018-03-02T17:03:39.044Z,-6.10
2018-03-02T17:06:07.192Z,-6.00
2018-03-02T17:08:34.830Z,-6.00
2018-03-02T17:11:02.335Z,-6.00
2018-03-02T17:13:29.868Z,-6.00
2018-03-02T17:15:57.404Z,-5.90
2018-03-02T17:18:25.004Z,-6.00
2018-03-02T17:20:52.768Z,-6.00
2018-03-02T17:23:20.503Z,-6.10
2018-03-02T17:25:48.131Z,-6.30
2018-03-02T17:28:15.643Z,-6.20
2018-03-02T17:30:43.176Z,-5.90
2018-03-02T17:33:10.680Z,-6.10
2018-03-02T17:35:38.204Z,-6.10
2018-03-02T17:38:05.837Z,-6.10
2018-03-02T17:40:33.375Z,-6.30
2018-03-02T17:43:00.894Z,-6.30
2018-03-02T17:45:28.550Z,-6.10
2018-03-02T17:47:56.068Z,-6.10
2018-03-02T17:50:23.755Z,-6.10
2018-03-02T17:52:51.297Z,-6.10
2018-03-02T17:55:18.992Z,-6.20
2018-03-02T17:57:46.535Z,-6.10
2018-03-02T18:00:14.191Z,-6.20
2018-03-02T18:02:41.969Z,-2.90
2018-03-02T18:05:09.476Z,-2.30
2018-03-02T18:07:37.191Z,-1.30
2018-03-02T18:10:04.691Z,-1.90
2018-03-02T18:12:34.056Z,-2.10
2018-03-02T18:15:01.732Z,-2.70
2018-03-02T18:17:30.255Z,-3.50
2018-03-02T18:19:57.844Z,-4.20
2018-03-02T18:22:25.579Z,-5.00
2018-03-02T18:24:53.136Z,-5.50
2018-03-02T18:27:20.647Z,-5.50
2018-03-02T18:29:48.279Z,-5.80
2018-03-02T18:32:15.796Z,-5.40
2018-03-02T18:34:43.308Z,-4.00
2018-03-02T18:37:10.958Z,-4.10
2018-03-02T18:39:38.464Z,-4.40
2018-03-02T18:42:06.181Z,-4.80
2018-03-02T18:44:34.096Z,-5.00
2018-03-02T18:47:01.619Z,-5.40
2018-03-02T18:49:29.141Z,-5.50
2018-03-02T18:51:57.311Z,-5.70
2018-03-02T18:54:25.200Z,-5.60
2018-03-02T18:56:52.702Z,-5.60
2018-03-02T18:59:20.326Z,-5.80
2018-03-02T19:01:47.964Z,-6.00
2018-03-02T19:04:15.595Z,-5.90
2018-03-02T19:06:43.868Z,-6.20
2018-03-02T19:09:11.561Z,-6.20
2018-03-02T19:11:39.076Z,-6.30
2018-03-02T19:14:06.592Z,-6.30
2018-03-02T19:16:34.099Z,-6.30
2018-03-02T19:19:02.646Z,-6.40
2018-03-02T19:21:30.159Z,-6.40
2018-03-02T19:23:57.681Z,-6.40
2018-03-02T19:26:25.967Z,-6.50
2018-03-02T19:28:53.512Z,-6.50
2018-03-02T19:31:21.020Z,-6.40
2018-03-02T19:33:48.547Z,-6.30
2018-03-02T19:36:16.059Z,-6.60
2018-03-02T19:38:43.591Z,-6.70
2018-03-02T19:41:11.108Z,-6.70
2018-03-02T19:43:39.396Z,-6.40
2018-03-02T19:46:07.294Z,-6.40
2018-03-02T19:48:34.795Z,-6.40
2018-03-02T19:51:03.561Z,-6.80
2018-03-02T19:53:31.096Z,-6.90
2018-03-02T19:55:58.607Z,-6.70
2018-03-02T19:58:27.164Z,-6.50
2018-03-02T20:00:54.698Z,-6.60
2018-03-02T20:03:22.359Z,-6.40
2018-03-02T20:05:49.874Z,-6.50
2018-03-02T20:08:18.069Z,-6.50
2018-03-02T20:10:45.675Z,-6.50
2018-03-02T20:13:13.198Z,-6.90
2018-03-02T20:15:40.868Z,-6.80
2018-03-02T20:18:08.391Z,-6.90
2018-03-02T20:20:36.843Z,-6.90
2018-03-02T20:23:04.525Z,-7.00
2018-03-02T20:25:31.988Z,-7.10
2018-03-02T20:27:59.696Z,-7.00
2018-03-02T20:30:27.215Z,-7.20
2018-03-02T20:32:54.924Z,-7.00
2018-03-02T20:35:22.464Z,-7.00
2018-03-02T20:37:50.146Z,-6.90
2018-03-02T20:40:17.667Z,-7.20
2018-03-02T20:42:45.193Z,-7.30
2018-03-02T20:45:13.481Z,-7.20
2018-03-02T20:47:41.800Z,-7.20
2018-03-02T20:50:09.318Z,-7.20
2018-03-02T20:52:36.905Z,-7.10
2018-03-02T20:55:04.392Z,-7.30
2018-03-02T20:57:31.924Z,-7.50
2018-03-02T20:59:59.711Z,-7.50
2018-03-02T21:02:27.243Z,-7.50
2018-03-02T21:04:54.943Z,-7.40
2018-03-02T21:07:23.802Z,-7.30
2018-03-02T21:09:51.390Z,-7.40
2018-03-02T21:12:18.911Z,-7.50
2018-03-02T21:14:46.573Z,-7.30
2018-03-02T21:17:14.099Z,-7.40
2018-03-02T21:19:41.612Z,-7.40
2018-03-02T21:22:09.198Z,-7.40
2018-03-02T21:24:36.712Z,-7.50
2018-03-02T21:27:04.340Z,-7.40
2018-03-02T21:29:32.887Z,-7.30
2018-03-02T21:32:00.439Z,-7.30
2018-03-02T21:34:28.024Z,-7.40
2018-03-02T21:36:55.531Z,-7.40
2018-03-02T21:39:23.130Z,-7.50
2018-03-02T21:41:50.771Z,-7.50
2018-03-02T21:44:18.280Z,-7.40
2018-03-02T21:46:45.811Z,-7.50
2018-03-02T21:49:14.100Z,-7.60
2018-03-02T21:51:41.675Z,-7.60
2018-03-02T21:54:09.262Z,-7.60
2018-03-02T21:56:36.767Z,-7.60
2018-03-02T21:59:04.503Z,-7.60
2018-03-02T22:01:32.034Z,-7.60
2018-03-02T22:03:59.539Z,-7.40
2018-03-02T22:06:27.192Z,-7.70
2018-03-02T22:08:56.500Z,-8.00
2018-03-02T22:11:24.267Z,-7.90
2018-03-02T22:13:51.792Z,-7.70
2018-03-02T22:16:19.305Z,-7.70
2018-03-02T22:18:47.591Z,-7.50
2018-03-02T22:21:15.326Z,-7.50
2018-03-02T22:23:43.967Z,-7.50
2018-03-02T22:26:11.758Z,-7.60
2018-03-02T22:28:40.616Z,-7.60
2018-03-02T22:31:08.789Z,-7.80
2018-03-02T22:33:36.330Z,-7.80
2018-03-02T22:36:03.832Z,-7.70
2018-03-02T22:38:31.500Z,-8.00
2018-03-02T22:40:59.023Z,-7.90
2018-03-02T22:43:26.539Z,-7.80
2018-03-02T22:45:54.140Z,-7.90
2018-03-02T22:48:21.647Z,-8.00
2018-03-02T22:50:49.159Z,-7.90
2018-03-02T22:53:17.484Z,-7.90
2018-03-02T22:55:45.228Z,-7.80
2018-03-02T22:58:12.752Z,-7.70
2018-03-02T23:00:40.448Z,-7.80
2018-03-02T23:03:08.954Z,-7.90
2018-03-02T23:05:36.459Z,-7.90
2018-03-02T23:08:03.973Z,-7.90
2018-03-02T23:10:32.411Z,-8.20
2018-03-02T23:12:59.926Z,-8.10
2018-03-02T23:15:27.560Z,-7.90
2018-03-02T23:17:55.726Z,-5.90
2018-03-02T23:20:24.084Z,-4.80
2018-03-02T23:22:51.618Z,-4.80
2018-03-02T23:25:19.279Z,-5.20
2018-03-02T23:27:47.311Z,-6.20
2018-03-02T23:30:14.855Z,-6.60
2018-03-02T23:32:42.567Z,-6.80
2018-03-02T23:35:10.091Z,-7.10
2018-03-02T23:37:37.827Z,-7.30
2018-03-02T23:40:05.584Z,-7.40
2018-03-02T23:42:33.366Z,-8.00
2018-03-02T23:45:01.340Z,-8.00
2018-03-02T23:47:28.857Z,-7.90
2018-03-02T23:49:56.636Z,-8.10
2018-03-02T23:52:24.400Z,-7.80
2018-03-02T23:54:52.170Z,-7.90
2018-03-02T23:57:19.924Z,-8.00
2018-03-02T23:59:47.691Z,-7.80
